createdAt,value
2023-01-07T00:01:13.320Z,2.3
2023-01-07T00:02:29.595Z,2.7
2023-01-07T00:03:45.893Z,2.5
2023-01-07T00:05:02.201Z,2.2
2023-01-07T00:06:18.484Z,2.4
2023-01-07T00:07:34.790Z,2.4
2023-01-07T00:08:51.067Z,2.5
2023-01-07T00:10:07.370Z,2.7
2023-01-07T00:11:23.652Z,2.4
2023-01-07T00:12:39.953Z,2.3
2023-01-07T00:13:56.238Z,2.2
2023-01-07T00:15:12.546Z,2.3
2023-01-07T00:16:28.848Z,2.3
2023-01-07T00:17:45.144Z,2.4
2023-01-07T00:19:00.439Z,2.6
2023-01-07T00:20:16.734Z,2.6
2023-01-07T00:21:33.020Z,2.2
2023-01-07T00:22:49.332Z,2.4
2023-01-07T00:24:05.633Z,2.6
2023-01-07T00:25:21.899Z,2.3
2023-01-07T00:26:38.202Z,2.5
2023-01-07T00:27:54.500Z,2.5
2023-01-07T00:29:10.798Z,2.4
2023-01-07T00:30:27.103Z,2.5
2023-01-07T00:31:43.373Z,2.5
2023-01-07T00:32:59.684Z,2.8
2023-01-07T00:34:15.958Z,2.5
2023-01-07T00:35:31.280Z,2.5
2023-01-07T00:36:47.565Z,2.6
2023-01-07T00:38:03.866Z,2.3
2023-01-07T00:39:20.175Z,2.4
2023-01-07T00:40:36.441Z,2.6
2023-01-07T00:41:52.751Z,2.4
2023-01-07T00:43:09.058Z,2.8
2023-01-07T00:44:25.325Z,2.3
2023-01-07T00:45:41.628Z,2.8
2023-01-07T00:46:57.918Z,2.6
2023-01-07T00:48:14.202Z,2.6
2023-01-07T00:49:30.510Z,2.8
2023-01-07T00:50:46.803Z,2.8
2023-01-07T00:53:18.406Z,2.5
2023-01-07T00:54:34.702Z,2.7
2023-01-07T00:55:51.002Z,2.6
2023-01-07T00:57:07.279Z,2.7
2023-01-07T00:58:23.567Z,2.7
2023-01-07T00:59:39.877Z,2.5
2023-01-07T01:00:56.159Z,2.7
2023-01-07T01:02:12.460Z,2.5
2023-01-07T01:03:28.749Z,2.4
2023-01-07T01:04:45.037Z,2.4
2023-01-07T01:06:01.333Z,2.4
2023-01-07T01:07:17.627Z,2.7
2023-01-07T01:08:32.934Z,2.4
2023-01-07T01:09:49.245Z,2.4
2023-01-07T01:11:05.529Z,2.8
2023-01-07T01:12:21.819Z,2.5
2023-01-07T01:13:38.117Z,2.8
2023-01-07T01:14:54.407Z,2.6
2023-01-07T01:16:10.704Z,2.2
2023-01-07T01:17:27.000Z,2.5
2023-01-07T01:18:43.284Z,2.6
2023-01-07T01:19:59.595Z,2.6
2023-01-07T01:21:15.898Z,2.5
2023-01-07T01:22:32.169Z,2.4
2023-01-07T01:23:48.478Z,2.5
2023-01-07T01:25:03.787Z,2.3
2023-01-07T01:26:20.069Z,2.4
2023-01-07T01:27:36.371Z,2.4
2023-01-07T01:28:52.669Z,2.5
2023-01-07T01:30:08.952Z,2.6
2023-01-07T01:31:25.241Z,2.6
2023-01-07T01:32:41.533Z,2.6
2023-01-07T01:33:57.841Z,2.5
2023-01-07T01:35:14.132Z,2.6
2023-01-07T01:36:30.429Z,2.7
2023-01-07T01:37:46.727Z,2.7
2023-01-07T01:39:03.017Z,2.8
2023-01-07T01:40:19.303Z,2.5
2023-01-07T01:41:34.605Z,2.3
2023-01-07T01:42:50.906Z,2.4
2023-01-07T01:44:07.206Z,2.3
2023-01-07T01:45:23.497Z,2.3
2023-01-07T01:46:39.782Z,2.2
2023-01-07T01:47:56.096Z,2.2
2023-01-07T01:49:12.367Z,2.2
2023-01-07T01:50:28.673Z,2.2
2023-01-07T01:51:44.977Z,2.3
2023-01-07T01:53:01.259Z,2
2023-01-07T01:54:17.553Z,2.1
2023-01-07T01:55:33.846Z,1.8
2023-01-07T01:56:50.139Z,2
2023-01-07T01:58:05.446Z,2.1
2023-01-07T01:59:21.738Z,2.2
2023-01-07T02:00:38.039Z,1.9
2023-01-07T02:01:54.338Z,1.8
2023-01-07T02:03:10.615Z,1.9
2023-01-07T02:04:26.919Z,1.8
2023-01-07T02:05:43.212Z,2
2023-01-07T02:06:59.498Z,2.1
2023-01-07T02:08:15.794Z,1.9
2023-01-07T02:09:32.082Z,2
2023-01-07T02:10:48.376Z,1.8
2023-01-07T02:12:04.672Z,2.1
2023-01-07T02:13:20.974Z,2.1
2023-01-07T02:14:37.384Z,2.1
2023-01-07T02:15:53.689Z,2
2023-01-07T02:17:09.968Z,2.1
2023-01-07T02:18:26.272Z,2.3
2023-01-07T02:19:42.583Z,2.2
2023-01-07T02:20:58.858Z,1.9
2023-01-07T02:22:15.157Z,2.2
2023-01-07T02:23:31.437Z,2.2
2023-01-07T02:24:47.753Z,2.1
2023-01-07T02:26:04.031Z,2
2023-01-07T02:27:20.332Z,2
2023-01-07T02:28:36.625Z,2
2023-01-07T02:29:52.914Z,1.9
2023-01-07T02:31:08.225Z,2
2023-01-07T02:32:24.502Z,2.1
2023-01-07T02:33:40.804Z,1.9
2023-01-07T02:34:57.112Z,2.2
2023-01-07T02:36:13.386Z,1.8
2023-01-07T02:37:29.674Z,2
2023-01-07T02:38:45.986Z,1.9
2023-01-07T02:40:02.267Z,1.8
2023-01-07T02:41:18.557Z,2
2023-01-07T02:42:34.886Z,1.8
2023-01-07T02:43:51.150Z,1.6
2023-01-07T02:45:07.456Z,1.8
2023-01-07T02:47:40.027Z,1.9
2023-01-07T02:48:55.351Z,1.8
2023-01-07T02:50:11.648Z,1.9
2023-01-07T02:51:27.939Z,1.7
2023-01-07T02:52:44.219Z,1.8
2023-01-07T02:54:00.506Z,1.8
2023-01-07T02:55:16.801Z,1.5
2023-01-07T02:56:33.099Z,1.9
2023-01-07T02:57:49.396Z,1.7
2023-01-07T02:59:05.696Z,1.7
2023-01-07T03:00:21.976Z,1.7
2023-01-07T03:01:38.274Z,1.8
2023-01-07T03:02:54.582Z,1.7
2023-01-07T03:04:10.861Z,1.8
2023-01-07T03:05:26.176Z,1.6
2023-01-07T03:07:58.768Z,1.7
2023-01-07T03:09:15.056Z,1.6
2023-01-07T03:10:31.341Z,1.6
2023-01-07T03:11:47.651Z,1.5
2023-01-07T03:13:03.931Z,1.6
2023-01-07T03:14:20.229Z,1.6
2023-01-07T03:15:36.538Z,1.9
2023-01-07T03:16:52.811Z,1.4
2023-01-07T03:18:09.113Z,1.6
2023-01-07T03:19:25.393Z,1.6
2023-01-07T03:20:41.691Z,1.5
2023-01-07T03:21:57.000Z,1.4
2023-01-07T03:23:13.308Z,1.5
2023-01-07T03:24:29.592Z,1.6
2023-01-07T03:25:45.882Z,1.5
2023-01-07T03:27:02.190Z,1.7
2023-01-07T03:28:18.494Z,1.4
2023-01-07T03:29:34.762Z,1.4
2023-01-07T03:30:51.067Z,1.4
2023-01-07T03:32:07.353Z,1.6
2023-01-07T03:33:23.661Z,1.6
2023-01-07T03:34:39.937Z,1.5
2023-01-07T03:35:56.224Z,1.6
2023-01-07T03:37:12.525Z,1.3
2023-01-07T03:38:27.864Z,1.4
2023-01-07T03:39:44.128Z,1.5
2023-01-07T03:41:00.433Z,1.5
2023-01-07T03:42:16.724Z,1.7
2023-01-07T03:43:33.005Z,1.5
2023-01-07T03:44:49.302Z,1.6
2023-01-07T03:46:05.592Z,1.5
2023-01-07T03:47:21.880Z,1.4
2023-01-07T03:48:38.185Z,1.3
2023-01-07T03:49:54.471Z,1.9
2023-01-07T03:51:10.766Z,1.5
2023-01-07T03:53:43.375Z,1.7
2023-01-07T03:54:58.670Z,1.7
2023-01-07T03:56:14.969Z,1.7
2023-01-07T03:57:31.253Z,1.8
2023-01-07T03:58:47.550Z,1.5
2023-01-07T04:00:02.874Z,1.7
2023-01-07T04:01:19.166Z,1.6
2023-01-07T04:02:35.449Z,1.6
2023-01-07T04:03:51.739Z,1.7
2023-01-07T04:05:08.048Z,1.6
2023-01-07T04:06:24.344Z,1.6
2023-01-07T04:07:40.615Z,1.5
2023-01-07T04:08:56.927Z,1.6
2023-01-07T04:10:13.221Z,1.8
2023-01-07T04:11:29.506Z,1.7
2023-01-07T04:12:45.809Z,2
2023-01-07T04:14:02.100Z,1.8
2023-01-07T04:15:18.380Z,1.8
2023-01-07T04:16:33.700Z,1.7
2023-01-07T04:17:49.992Z,2.2
2023-01-07T04:19:06.294Z,1.7
2023-01-07T04:20:22.000Z,1.7
2023-01-07T04:21:38.881Z,1.6
2023-01-07T04:22:55.156Z,1.8
2023-01-07T04:24:11.457Z,2
2023-01-07T04:25:27.750Z,1.6
2023-01-07T04:26:44.032Z,1.6
2023-01-07T04:28:00.329Z,1.8
2023-01-07T04:29:16.620Z,1.9
2023-01-07T04:30:32.918Z,1.7
2023-01-07T04:31:49.206Z,1.7
2023-01-07T04:33:04.521Z,1.7
2023-01-07T04:34:20.833Z,1.3
2023-01-07T04:35:37.125Z,1.5
2023-01-07T04:36:53.404Z,1.5
2023-01-07T04:38:09.709Z,1.6
2023-01-07T04:39:26.001Z,1.6
2023-01-07T04:40:42.287Z,1.7
2023-01-07T04:41:58.580Z,1.5
2023-01-07T04:43:14.865Z,1.6
2023-01-07T04:44:31.181Z,1.7
2023-01-07T04:45:47.459Z,1.6
2023-01-07T04:47:03.757Z,1.6
2023-01-07T04:48:20.042Z,1.5
2023-01-07T04:49:35.370Z,1.6
2023-01-07T04:50:51.653Z,1.4
2023-01-07T04:52:07.934Z,1.6
2023-01-07T04:53:24.227Z,1.6
2023-01-07T04:54:40.536Z,1.7
2023-01-07T04:55:56.835Z,1.5
2023-01-07T04:57:13.121Z,1.7
2023-01-07T04:58:29.420Z,1.6
2023-01-07T04:59:45.695Z,1.6
2023-01-07T05:01:02.009Z,1.6
2023-01-07T05:02:18.284Z,1.5
2023-01-07T05:03:34.583Z,1.4
2023-01-07T05:04:50.882Z,1.5
2023-01-07T05:06:06.193Z,1.5
2023-01-07T05:07:22.492Z,1.7
2023-01-07T05:08:38.786Z,1.5
2023-01-07T05:09:55.070Z,1.4
2023-01-07T05:11:11.355Z,1.5
2023-01-07T05:12:27.656Z,1.5
2023-01-07T05:13:43.943Z,1.3
2023-01-07T05:15:00.243Z,1.8
2023-01-07T05:16:16.546Z,1.8
2023-01-07T05:17:32.825Z,1.5
2023-01-07T05:18:49.131Z,1.3
2023-01-07T05:20:05.433Z,1.3
2023-01-07T05:21:21.732Z,1.5
2023-01-07T05:22:38.124Z,1.1
2023-01-07T05:23:54.418Z,1.2
2023-01-07T05:25:10.739Z,1.3
2023-01-07T05:26:27.022Z,1.3
2023-01-07T05:27:43.323Z,1.4
2023-01-07T05:28:59.605Z,1.2
2023-01-07T05:30:15.889Z,1.2
2023-01-07T05:31:32.197Z,1.2
2023-01-07T05:32:48.493Z,1.3
2023-01-07T05:34:04.784Z,1.3
2023-01-07T05:35:21.066Z,1.1
2023-01-07T05:36:37.375Z,1.3
2023-01-07T05:37:53.662Z,1
2023-01-07T05:39:08.979Z,1
2023-01-07T05:40:25.259Z,1.1
2023-01-07T05:41:41.565Z,1.2
2023-01-07T05:42:57.853Z,1
2023-01-07T05:44:14.143Z,1.1
2023-01-07T05:45:30.430Z,1.1
2023-01-07T05:46:46.740Z,1.2
2023-01-07T05:48:03.035Z,1.3
2023-01-07T05:49:19.319Z,1
2023-01-07T05:50:35.611Z,1.2
2023-01-07T05:51:51.912Z,1.1
2023-01-07T05:53:08.209Z,1
2023-01-07T05:54:24.494Z,1
2023-01-07T05:55:39.804Z,1.2
2023-01-07T05:56:56.099Z,1
2023-01-07T05:58:12.388Z,1.2
2023-01-07T05:59:28.689Z,1
2023-01-07T06:00:44.977Z,1.1
2023-01-07T06:02:01.282Z,1.1
2023-01-07T06:03:17.569Z,1.1
2023-01-07T06:04:33.868Z,1.1
2023-01-07T06:05:50.165Z,0.9
2023-01-07T06:07:06.445Z,1
2023-01-07T06:08:22.743Z,0.9
2023-01-07T06:09:39.038Z,1.1
2023-01-07T06:10:55.336Z,1.1
2023-01-07T06:12:10.650Z,1.1
2023-01-07T06:13:26.949Z,1.1
2023-01-07T06:14:43.228Z,1.1
2023-01-07T06:15:59.520Z,1.1
2023-01-07T06:17:15.822Z,1.1
2023-01-07T06:18:32.107Z,1.1
2023-01-07T06:19:48.405Z,1
2023-01-07T06:21:04.699Z,1.3
2023-01-07T06:22:20.985Z,1
2023-01-07T06:23:37.287Z,0.8
2023-01-07T06:24:53.593Z,0.9
2023-01-07T06:26:09.889Z,1
2023-01-07T06:27:26.168Z,0.9
2023-01-07T06:28:41.482Z,1
2023-01-07T06:29:57.773Z,1
2023-01-07T06:31:14.063Z,1.2
2023-01-07T06:32:30.357Z,0.9
2023-01-07T06:33:46.659Z,1
2023-01-07T06:35:02.950Z,0.9
2023-01-07T06:36:19.252Z,0.9
2023-01-07T06:37:35.528Z,0.9
2023-01-07T06:38:51.837Z,0.9
2023-01-07T06:40:08.132Z,1.1
2023-01-07T06:41:24.418Z,0.9
2023-01-07T06:42:40.662Z,0.8
2023-01-07T06:43:56.945Z,0.9
2023-01-07T06:45:12.224Z,0.9
2023-01-07T06:46:28.458Z,0.9
2023-01-07T06:47:44.754Z,0.9
2023-01-07T06:49:01.048Z,0.8
2023-01-07T06:50:17.351Z,0.8
2023-01-07T06:51:33.640Z,0.8
2023-01-07T06:52:49.883Z,0.8
2023-01-07T06:54:06.135Z,0.7
2023-01-07T06:55:22.368Z,0.8
2023-01-07T06:56:38.603Z,0.6
2023-01-07T06:57:54.839Z,0.8
2023-01-07T06:59:11.093Z,0.7
2023-01-07T07:00:27.322Z,0.8
2023-01-07T07:01:42.593Z,0.7
2023-01-07T07:02:58.825Z,0.7
2023-01-07T07:04:15.058Z,0.7
2023-01-07T07:05:31.307Z,0.7
2023-01-07T07:06:47.551Z,0.8
2023-01-07T07:08:03.793Z,0.6
2023-01-07T07:09:20.021Z,0.9
2023-01-07T07:10:36.264Z,0.7
2023-01-07T07:11:52.504Z,0.8
2023-01-07T07:13:08.736Z,1.1
2023-01-07T07:14:24.977Z,0.7
2023-01-07T07:15:41.222Z,0.7
2023-01-07T07:16:57.456Z,0.9
2023-01-07T07:18:12.710Z,0.8
2023-01-07T07:19:28.963Z,0.8
2023-01-07T07:20:45.187Z,0.7
2023-01-07T07:22:01.439Z,1.1
2023-01-07T07:23:17.675Z,0.9
2023-01-07T07:24:33.917Z,1
2023-01-07T07:25:50.163Z,0.8
2023-01-07T07:27:06.394Z,0.8
2023-01-07T07:28:22.638Z,0.6
2023-01-07T07:29:38.873Z,0.8
2023-01-07T07:30:55.118Z,0.8
2023-01-07T07:32:11.348Z,0.7
2023-01-07T07:34:43.843Z,0.9
2023-01-07T07:35:59.089Z,0.8
2023-01-07T07:37:15.322Z,0.6
2023-01-07T07:38:31.581Z,0.9
2023-01-07T07:39:47.809Z,0.8
2023-01-07T07:41:04.046Z,0.8
2023-01-07T07:42:20.290Z,0.9
2023-01-07T07:43:36.520Z,0.8
2023-01-07T07:44:52.773Z,0.9
2023-01-07T07:46:09.008Z,0.8
2023-01-07T07:47:25.251Z,0.8
2023-01-07T07:48:41.488Z,1
2023-01-07T07:49:57.727Z,1.6
2023-01-07T07:51:13.974Z,0.9
2023-01-07T07:52:29.228Z,0.9
2023-01-07T07:55:01.703Z,1.1
2023-01-07T07:56:17.952Z,1.1
2023-01-07T07:57:34.192Z,0.9
2023-01-07T07:58:50.433Z,0.9
2023-01-07T08:00:06.664Z,1
2023-01-07T08:01:22.906Z,1
2023-01-07T08:02:39.142Z,0.9
2023-01-07T08:03:55.395Z,1.1
2023-01-07T08:05:11.632Z,0.9
2023-01-07T08:06:27.863Z,1.1
2023-01-07T08:07:44.105Z,0.9
2023-01-07T08:08:59.353Z,1
2023-01-07T08:10:15.595Z,1.2
2023-01-07T08:11:31.851Z,0.9
2023-01-07T08:12:48.092Z,1.1
2023-01-07T08:14:04.312Z,0.9
2023-01-07T08:15:19.582Z,1
2023-01-07T08:16:35.819Z,1
2023-01-07T08:17:52.056Z,0.8
2023-01-07T08:19:08.304Z,0.9
2023-01-07T08:20:24.533Z,0.9
2023-01-07T08:21:40.790Z,1.1
2023-01-07T08:22:57.023Z,1
2023-01-07T08:24:13.265Z,0.9
2023-01-07T08:25:29.499Z,0.9
2023-01-07T08:26:45.742Z,1
2023-01-07T08:28:01.989Z,1
2023-01-07T08:29:18.222Z,1.2
2023-01-07T08:30:34.470Z,1.1
2023-01-07T08:31:49.714Z,1
2023-01-07T08:33:05.965Z,1.5
2023-01-07T08:34:22.197Z,1
2023-01-07T08:35:38.444Z,1.2
2023-01-07T08:36:54.681Z,1.2
2023-01-07T08:38:10.919Z,0.9
2023-01-07T08:39:27.160Z,1.5
2023-01-07T08:40:43.392Z,0.8
2023-01-07T08:41:59.631Z,1.1
2023-01-07T08:43:15.886Z,1.2
2023-01-07T08:44:32.110Z,1.2
2023-01-07T08:45:48.357Z,0.9
2023-01-07T08:47:04.598Z,1
2023-01-07T08:48:19.859Z,1
2023-01-07T08:49:36.083Z,0.9
2023-01-07T08:50:52.328Z,1
2023-01-07T08:52:08.572Z,0.9
2023-01-07T08:53:24.810Z,0.9
2023-01-07T08:54:41.052Z,0.9
2023-01-07T08:55:57.292Z,0.8
2023-01-07T08:57:13.524Z,0.9
2023-01-07T08:58:29.775Z,0.8
2023-01-07T08:59:46.008Z,0.9
2023-01-07T09:01:02.258Z,0.8
2023-01-07T09:02:18.498Z,0.9
2023-01-07T09:03:34.741Z,0.8
2023-01-07T09:04:49.984Z,0.9
2023-01-07T09:06:06.235Z,0.7
2023-01-07T09:07:22.460Z,0.7
2023-01-07T09:08:38.715Z,0.8
2023-01-07T09:09:54.948Z,0.8
2023-01-07T09:11:11.193Z,0.9
2023-01-07T09:12:27.430Z,0.9
2023-01-07T09:13:43.673Z,1
2023-01-07T09:14:59.904Z,1
2023-01-07T09:16:16.144Z,0.8
2023-01-07T09:17:32.386Z,0.9
2023-01-07T09:18:48.623Z,0.8
2023-01-07T09:20:04.873Z,0.9
2023-01-07T09:21:20.135Z,0.8
2023-01-07T09:22:36.363Z,0.7
2023-01-07T09:23:52.604Z,0.7
2023-01-07T09:25:08.835Z,0.7
2023-01-07T09:26:25.083Z,0.8
2023-01-07T09:27:41.323Z,0.9
2023-01-07T09:28:57.574Z,0.8
2023-01-07T09:30:13.801Z,0.7
2023-01-07T09:31:30.045Z,0.9
2023-01-07T09:32:46.280Z,0.8
2023-01-07T09:34:02.516Z,0.7
2023-01-07T09:36:34.998Z,0.7
2023-01-07T09:37:50.251Z,0.8
2023-01-07T09:39:06.489Z,0.8
2023-01-07T09:40:22.731Z,0.8
2023-01-07T09:41:38.985Z,0.7
2023-01-07T09:42:55.222Z,0.9
2023-01-07T09:44:11.456Z,0.8
2023-01-07T09:45:27.704Z,0.7
2023-01-07T09:46:43.944Z,0.9
2023-01-07T09:48:00.174Z,0.8
2023-01-07T09:49:16.416Z,0.9
2023-01-07T09:50:32.665Z,0.8
2023-01-07T09:51:48.894Z,0.9
2023-01-07T09:53:05.131Z,0.7
2023-01-07T09:54:20.391Z,0.8
2023-01-07T09:55:36.627Z,0.9
2023-01-07T09:56:52.867Z,0.9
2023-01-07T09:58:09.110Z,0.8
2023-01-07T09:59:25.345Z,0.8
2023-01-07T10:00:41.582Z,0.9
2023-01-07T10:01:57.830Z,0.9
2023-01-07T10:03:14.066Z,0.9
2023-01-07T10:04:30.304Z,0.9
2023-01-07T10:05:46.545Z,0.9
2023-01-07T10:07:02.778Z,0.7
2023-01-07T10:08:19.018Z,1
2023-01-07T10:09:35.258Z,0.7
2023-01-07T10:10:50.532Z,0.7
2023-01-07T10:12:06.752Z,1.1
2023-01-07T10:13:22.991Z,1
2023-01-07T10:14:39.233Z,0.8
2023-01-07T10:15:55.469Z,0.9
2023-01-07T10:17:11.718Z,0.8
2023-01-07T10:18:27.945Z,0.9
2023-01-07T10:19:44.203Z,0.8
2023-01-07T10:21:00.422Z,0.7
2023-01-07T10:22:16.664Z,0.9
2023-01-07T10:23:32.908Z,0.8
2023-01-07T10:24:49.146Z,0.6
2023-01-07T10:26:05.382Z,0.7
2023-01-07T10:27:20.637Z,0.8
2023-01-07T10:28:36.871Z,0.6
2023-01-07T10:29:53.116Z,0.7
2023-01-07T10:31:09.355Z,1
2023-01-07T10:32:25.589Z,0.6
2023-01-07T10:33:41.845Z,0.7
2023-01-07T10:34:58.076Z,0.7
2023-01-07T10:36:14.319Z,0.5
2023-01-07T10:37:30.556Z,0.7
2023-01-07T10:38:46.799Z,0.7
2023-01-07T10:40:03.040Z,0.6
2023-01-07T10:41:19.264Z,0.9
2023-01-07T10:42:35.502Z,0.6
2023-01-07T10:43:50.764Z,0.6
2023-01-07T10:45:07.002Z,0.6
2023-01-07T10:46:23.243Z,0.6
2023-01-07T10:47:39.482Z,0.7
2023-01-07T10:48:55.722Z,0.6
2023-01-07T10:50:11.960Z,0.6
2023-01-07T10:51:28.195Z,0.7
2023-01-07T10:52:44.436Z,1.5
2023-01-07T10:54:00.687Z,0.7
2023-01-07T10:55:16.934Z,0.6
2023-01-07T10:56:33.155Z,0.8
2023-01-07T10:57:49.403Z,0.6
2023-01-07T10:59:05.645Z,0.7
2023-01-07T11:00:20.899Z,0.8
2023-01-07T11:01:37.141Z,0.7
2023-01-07T11:02:53.374Z,0.8
2023-01-07T11:04:09.607Z,0.8
2023-01-07T11:05:25.852Z,0.9
2023-01-07T11:06:42.098Z,1
2023-01-07T11:07:58.324Z,0.7
2023-01-07T11:09:14.564Z,0.6
2023-01-07T11:10:30.803Z,0.7
2023-01-07T11:11:47.040Z,0.6
2023-01-07T11:13:03.286Z,0.6
2023-01-07T11:14:19.518Z,0.7
2023-01-07T11:15:35.762Z,0.8
2023-01-07T11:16:52.122Z,0.8
2023-01-07T11:18:08.365Z,0.8
2023-01-07T11:19:24.610Z,0.9
2023-01-07T11:20:40.841Z,0.6
2023-01-07T11:21:57.075Z,0.8
2023-01-07T11:23:13.328Z,0.6
2023-01-07T11:24:29.558Z,0.7
2023-01-07T11:25:45.790Z,0.6
2023-01-07T11:27:02.041Z,0.5
2023-01-07T11:28:18.272Z,0.5
2023-01-07T11:29:34.518Z,0.5
2023-01-07T11:30:50.742Z,0.6
2023-01-07T11:32:06.982Z,0.5
2023-01-07T11:33:22.249Z,0.6
2023-01-07T11:34:38.483Z,0.6
2023-01-07T11:35:54.725Z,0.5
2023-01-07T11:37:10.963Z,0.6
2023-01-07T11:38:27.202Z,0.6
2023-01-07T11:39:43.444Z,0.6
2023-01-07T11:40:59.681Z,0.5
2023-01-07T11:42:15.920Z,0.7
2023-01-07T11:43:32.147Z,0.6
2023-01-07T11:44:48.397Z,0.6
2023-01-07T11:46:04.639Z,0.6
2023-01-07T11:47:20.885Z,0.7
2023-01-07T11:48:37.105Z,0.8
2023-01-07T11:49:52.367Z,0.6
2023-01-07T11:51:08.606Z,0.6
2023-01-07T11:52:24.843Z,0.8
2023-01-07T11:53:41.082Z,2.2
2023-01-07T11:54:57.000Z,1.1
2023-01-07T11:56:13.580Z,1.8
2023-01-07T11:57:29.807Z,1.7
2023-01-07T11:58:46.056Z,1.4
2023-01-07T12:00:02.296Z,1.6
2023-01-07T12:01:18.514Z,1.7
2023-01-07T12:02:34.772Z,1
2023-01-07T12:03:50.995Z,1.3
2023-01-07T12:05:07.252Z,2
2023-01-07T12:06:22.496Z,2.3
2023-01-07T12:07:38.734Z,3.4
2023-01-07T12:08:54.983Z,3.5
2023-01-07T12:10:11.210Z,3.7
2023-01-07T12:11:27.466Z,4.9
2023-01-07T12:12:43.687Z,3.1
2023-01-07T12:13:59.931Z,3.7
2023-01-07T12:15:16.172Z,3
2023-01-07T12:16:32.410Z,2.5
2023-01-07T12:17:48.650Z,4.7
2023-01-07T12:19:04.896Z,2.9
2023-01-07T12:20:21.136Z,6.1
2023-01-07T12:21:37.373Z,3.5
2023-01-07T12:22:52.636Z,1.6
2023-01-07T12:24:08.876Z,3.4
2023-01-07T12:25:25.114Z,2.9
2023-01-07T12:26:41.344Z,2.4
2023-01-07T12:27:57.579Z,1.4
2023-01-07T12:29:13.839Z,2.5
2023-01-07T12:30:29.080Z,1.9
2023-01-07T12:31:45.334Z,1.1
2023-01-07T12:33:01.573Z,0.9
2023-01-07T12:34:17.811Z,1.1
2023-01-07T12:35:34.040Z,1
2023-01-07T12:36:50.286Z,1.3
2023-01-07T12:38:06.524Z,0.9
2023-01-07T12:39:22.761Z,1.1
2023-01-07T12:40:39.000Z,0.9
2023-01-07T12:41:55.242Z,0.6
2023-01-07T12:43:11.476Z,1
2023-01-07T12:44:27.712Z,1.1
2023-01-07T12:45:43.946Z,0.9
2023-01-07T12:46:59.206Z,0.9
2023-01-07T12:48:15.442Z,1.6
2023-01-07T12:49:31.695Z,2.3
2023-01-07T12:50:47.935Z,2.8
2023-01-07T12:52:04.161Z,2.5
2023-01-07T12:53:20.410Z,2.4
2023-01-07T12:54:36.641Z,1.8
2023-01-07T12:55:52.894Z,1.4
2023-01-07T12:57:09.122Z,1.1
2023-01-07T12:58:25.358Z,1.1
2023-01-07T12:59:41.602Z,1.1
2023-01-07T13:00:57.846Z,0.8
2023-01-07T13:02:14.083Z,1.1
2023-01-07T13:03:29.348Z,0.9
2023-01-07T13:04:45.568Z,0.8
2023-01-07T13:06:01.813Z,1
2023-01-07T13:07:18.050Z,0.9
2023-01-07T13:08:34.302Z,0.9
2023-01-07T13:09:50.527Z,1.1
2023-01-07T13:11:06.781Z,1
2023-01-07T13:12:23.021Z,1
2023-01-07T13:13:39.261Z,0.9
2023-01-07T13:14:55.495Z,0.9
2023-01-07T13:16:11.740Z,1
2023-01-07T13:17:27.975Z,0.9
2023-01-07T13:18:44.217Z,0.9
2023-01-07T13:19:59.469Z,1
2023-01-07T13:21:15.713Z,1.5
2023-01-07T13:22:31.952Z,1.2
2023-01-07T13:23:48.182Z,2.1
2023-01-07T13:25:04.433Z,1
2023-01-07T13:26:20.671Z,0.8
2023-01-07T13:27:36.912Z,1
2023-01-07T13:28:53.151Z,0.9
2023-01-07T13:30:09.393Z,1
2023-01-07T13:31:25.632Z,0.9
2023-01-07T13:32:41.872Z,1
2023-01-07T13:33:58.110Z,1
2023-01-07T13:35:14.355Z,1
2023-01-07T13:36:29.620Z,0.9
2023-01-07T13:37:45.841Z,0.9
2023-01-07T13:39:02.086Z,1.2
2023-01-07T13:40:18.325Z,1.4
2023-01-07T13:41:34.563Z,1.1
2023-01-07T13:42:50.803Z,1
2023-01-07T13:44:07.045Z,1
2023-01-07T13:45:23.278Z,1.1
2023-01-07T13:46:39.534Z,1.3
2023-01-07T13:47:55.756Z,1.1
2023-01-07T13:49:12.000Z,1.1
2023-01-07T13:50:28.252Z,1.2
2023-01-07T13:51:44.485Z,1.2
2023-01-07T13:52:59.738Z,1
2023-01-07T13:54:15.990Z,2
2023-01-07T13:55:32.236Z,2.7
2023-01-07T13:56:48.463Z,2.5
2023-01-07T13:58:04.697Z,2.3
2023-01-07T13:59:20.954Z,1.8
2023-01-07T14:00:37.187Z,1.4
2023-01-07T14:01:53.414Z,1.3
2023-01-07T14:03:09.662Z,1.3
2023-01-07T14:04:25.904Z,1.3
2023-01-07T14:05:42.143Z,1.5
2023-01-07T14:06:58.370Z,2
2023-01-07T14:08:14.625Z,1.3
2023-01-07T14:09:29.880Z,1.6
2023-01-07T14:10:46.117Z,1.4
2023-01-07T14:12:02.353Z,1.5
2023-01-07T14:13:18.598Z,1.4
2023-01-07T14:14:34.833Z,1.6
2023-01-07T14:15:51.076Z,1.5
2023-01-07T14:17:07.322Z,1.6
2023-01-07T14:18:23.571Z,1.7
2023-01-07T14:19:39.788Z,1.5
2023-01-07T14:20:56.036Z,1.5
2023-01-07T14:22:12.265Z,1.7
2023-01-07T14:23:28.521Z,1.3
2023-01-07T14:24:44.748Z,1.5
2023-01-07T14:26:00.028Z,2.1
2023-01-07T14:27:16.256Z,1.5
2023-01-07T14:28:32.482Z,1.8
2023-01-07T14:29:48.735Z,2.4
2023-01-07T14:31:04.961Z,3.1
2023-01-07T14:32:21.213Z,6.4
2023-01-07T14:33:37.464Z,7.8
2023-01-07T14:34:53.701Z,9
2023-01-07T14:36:09.934Z,10.4
2023-01-07T14:37:26.180Z,7.2
2023-01-07T14:38:42.425Z,6.7
2023-01-07T14:39:58.656Z,5.4
2023-01-07T14:41:14.887Z,6
2023-01-07T14:42:30.138Z,4.1
2023-01-07T14:43:46.382Z,4.5
2023-01-07T14:45:02.628Z,7
2023-01-07T14:46:18.866Z,7.7
2023-01-07T14:47:35.099Z,6.8
2023-01-07T14:48:51.350Z,5.3
2023-01-07T14:50:07.576Z,6.4
2023-01-07T14:51:23.825Z,3.8
2023-01-07T14:52:40.070Z,4.5
2023-01-07T14:53:56.319Z,3.5
2023-01-07T14:55:12.544Z,3.1
2023-01-07T14:56:28.780Z,3.5
2023-01-07T14:57:45.021Z,2.8
2023-01-07T14:59:00.285Z,2.7
2023-01-07T15:00:16.521Z,2.6
2023-01-07T15:01:32.757Z,2.4
2023-01-07T15:02:49.002Z,2.6
2023-01-07T15:04:05.235Z,2.2
2023-01-07T15:05:21.486Z,2.3
2023-01-07T15:06:37.729Z,2.5
2023-01-07T15:07:53.967Z,2.6
2023-01-07T15:09:10.192Z,2
2023-01-07T15:10:26.448Z,2.2
2023-01-07T15:11:42.685Z,2.3
2023-01-07T15:12:58.914Z,2.6
2023-01-07T15:14:15.152Z,3.4
2023-01-07T15:15:30.421Z,3.4
2023-01-07T15:16:46.659Z,3.6
2023-01-07T15:18:02.894Z,3.2
2023-01-07T15:19:19.139Z,3.4
2023-01-07T15:20:35.380Z,3.6
2023-01-07T15:21:51.618Z,3
2023-01-07T15:23:07.847Z,3.1
2023-01-07T15:24:24.087Z,3.2
2023-01-07T15:25:40.345Z,4.5
2023-01-07T15:26:56.572Z,4
2023-01-07T15:28:12.817Z,3.8
2023-01-07T15:29:29.049Z,3.9
2023-01-07T15:30:45.297Z,5.5
2023-01-07T15:32:00.558Z,4.1
2023-01-07T15:33:16.793Z,4.5
2023-01-07T15:34:33.035Z,3.7
2023-01-07T15:35:49.279Z,4.3
2023-01-07T15:37:05.582Z,5.7
2023-01-07T15:38:21.804Z,3.8
2023-01-07T15:39:38.046Z,4.1
2023-01-07T15:40:54.338Z,6.3
2023-01-07T15:42:10.639Z,3.9
2023-01-07T15:43:26.937Z,4.6
2023-01-07T15:44:43.213Z,4.4
2023-01-07T15:45:59.520Z,4.5
2023-01-07T15:47:15.804Z,4
2023-01-07T15:48:31.115Z,3.6
2023-01-07T15:49:47.416Z,7.6
2023-01-07T15:51:03.717Z,3.2
2023-01-07T15:52:20.003Z,4.7
2023-01-07T15:53:36.306Z,2.9
2023-01-07T15:54:52.603Z,2.5
2023-01-07T15:56:08.885Z,2.1
2023-01-07T15:57:25.125Z,2.8
2023-01-07T15:58:41.382Z,2.3
2023-01-07T15:59:57.608Z,2.7
2023-01-07T16:01:13.898Z,2.3
2023-01-07T16:02:30.205Z,2.1
2023-01-07T16:03:46.501Z,2.5
2023-01-07T16:05:01.818Z,2.5
2023-01-07T16:06:18.093Z,2.3
2023-01-07T16:07:34.342Z,2.9
2023-01-07T16:08:50.606Z,2.4
2023-01-07T16:10:06.887Z,2.6
2023-01-07T16:11:23.172Z,2.7
2023-01-07T16:12:39.477Z,3.2
2023-01-07T16:13:55.778Z,2.4
2023-01-07T16:15:12.064Z,2.7
2023-01-07T16:16:28.357Z,2.9
2023-01-07T16:17:44.647Z,2.8
2023-01-07T16:19:00.945Z,2.5
2023-01-07T16:20:17.241Z,3.3
2023-01-07T16:21:32.553Z,2.6
2023-01-07T16:22:48.856Z,2.7
2023-01-07T16:24:05.139Z,2.3
2023-01-07T16:25:21.444Z,2.4
2023-01-07T16:26:37.733Z,2.1
2023-01-07T16:27:54.018Z,2.6
2023-01-07T16:29:10.317Z,2.6
2023-01-07T16:30:26.607Z,3
2023-01-07T16:31:42.892Z,5.6
2023-01-07T16:32:59.187Z,4.7
2023-01-07T16:34:15.476Z,3.7
2023-01-07T16:35:31.784Z,3
2023-01-07T16:36:48.083Z,3.9
2023-01-07T16:38:03.377Z,3.1
2023-01-07T16:39:19.667Z,2.3
2023-01-07T16:40:35.962Z,2.7
2023-01-07T16:41:52.274Z,2.5
2023-01-07T16:43:08.558Z,2.5
2023-01-07T16:44:24.861Z,2.7
2023-01-07T16:45:40.171Z,2.6
2023-01-07T16:46:56.472Z,2.8
2023-01-07T16:48:12.746Z,2.9
2023-01-07T16:49:29.048Z,3.5
2023-01-07T16:50:45.000Z,3.2
2023-01-07T16:52:01.630Z,3.3
2023-01-07T16:53:17.935Z,3.5
2023-01-07T16:54:34.233Z,3.1
2023-01-07T16:55:50.510Z,3.4
2023-01-07T16:57:06.808Z,3.2
2023-01-07T16:58:23.112Z,3.5
2023-01-07T16:59:39.409Z,3.1
2023-01-07T17:00:55.697Z,3.1
2023-01-07T17:02:11.014Z,2.8
2023-01-07T17:03:27.295Z,2.8
2023-01-07T17:04:43.591Z,3.3
2023-01-07T17:05:59.892Z,2.6
2023-01-07T17:07:16.180Z,2.5
2023-01-07T17:08:32.478Z,2.8
2023-01-07T17:09:48.778Z,2.2
2023-01-07T17:11:05.064Z,2.5
2023-01-07T17:12:21.366Z,2.4
2023-01-07T17:13:37.658Z,2.5
2023-01-07T17:14:53.950Z,2.3
2023-01-07T17:16:10.243Z,2.9
2023-01-07T17:17:26.525Z,2.5
2023-01-07T17:18:41.833Z,2.8
2023-01-07T17:19:58.134Z,2.6
2023-01-07T17:21:14.439Z,2.8
2023-01-07T17:22:30.736Z,2.8
2023-01-07T17:23:47.016Z,2.6
2023-01-07T17:25:03.311Z,2.8
2023-01-07T17:26:19.608Z,3.1
2023-01-07T17:27:35.899Z,2.8
2023-01-07T17:28:52.195Z,3
2023-01-07T17:30:08.487Z,3.1
2023-01-07T17:31:24.785Z,3.3
2023-01-07T17:32:41.091Z,3.1
2023-01-07T17:33:57.373Z,3.3
2023-01-07T17:35:13.785Z,2.9
2023-01-07T17:36:30.079Z,3
2023-01-07T17:37:46.377Z,2.9
2023-01-07T17:39:02.678Z,2.8
2023-01-07T17:40:18.968Z,3
2023-01-07T17:41:35.265Z,3.1
2023-01-07T17:42:51.550Z,3.2
2023-01-07T17:44:07.844Z,3.3
2023-01-07T17:45:24.138Z,3.1